sensor_id;sensor_type;location;lat;lon;timestamp;pressure;altitude;pressure_sealevel;temperature;humidity
60170;BME280;46042;49.444;6.862;2023-11-21T00:01:05;97952.13;;;7.97;100.00
60170;BME280;46042;49.444;6.862;2023-11-21T00:03:35;97948.34;;;7.88;100.00
60170;BME280;46042;49.444;6.862;2023-11-21T00:06:03;97948.78;;;7.95;100.00
60170;BME280;46042;49.444;6.862;2023-11-21T00:08:29;97948.25;;;7.90;100.00
60170;BME280;46042;49.444;6.862;2023-11-21T00:10:56;97946.34;;;7.92;100.00
60170;BME280;46042;49.444;6.862;2023-11-21T00:13:23;97945.63;;;8.03;100.00
60170;BME280;46042;49.444;6.862;2023-11-21T00:15:50;97946.06;;;7.96;100.00
60170;BME280;46042;49.444;6.862;2023-11-21T00:18:17;97946.66;;;8.00;100.00
60170;BME280;46042;49.444;6.862;2023-11-21T00:20:44;97947.41;;;8.02;100.00
60170;BME280;46042;49.444;6.862;2023-11-21T00:23:11;97945.41;;;7.93;100.00
60170;BME280;46042;49.444;6.862;2023-11-21T00:25:38;97943.72;;;7.92;100.00
60170;BME280;46042;49.444;6.862;2023-11-21T00:28:04;97947.91;;;7.94;100.00
60170;BME280;46042;49.444;6.862;2023-11-21T00:30:32;97949.19;;;7.89;100.00
60170;BME280;46042;49.444;6.862;2023-11-21T00:32:59;97955.91;;;7.93;100.00
60170;BME280;46042;49.444;6.862;2023-11-21T00:35:26;97948.97;;;7.92;100.00
60170;BME280;46042;49.444;6.862;2023-11-21T00:37:53;97952.00;;;7.86;100.00
60170;BME280;46042;49.444;6.862;2023-11-21T00:40:20;97954.00;;;7.95;100.00
60170;BME280;46042;49.444;6.862;2023-11-21T00:42:47;97949.81;;;7.92;100.00
60170;BME280;46042;49.444;6.862;2023-11-21T00:45:14;97956.19;;;7.88;100.00
60170;BME280;46042;49.444;6.862;2023-11-21T00:47:41;97959.69;;;7.89;100.00
60170;BME280;46042;49.444;6.862;2023-11-21T00:50:09;97956.28;;;7.87;100.00
60170;BME280;46042;49.444;6.862;2023-11-21T00:52:36;97963.25;;;7.88;100.00
60170;BME280;46042;49.444;6.862;2023-11-21T00:55:06;97967.09;;;7.82;100.00
60170;BME280;46042;49.444;6.862;2023-11-21T00:57:35;97966.59;;;7.90;100.00
60170;BME280;46042;49.444;6.862;2023-11-21T01:00:01;97959.56;;;7.90;100.00
60170;BME280;46042;49.444;6.862;2023-11-21T01:02:33;97960.41;;;7.91;100.00
60170;BME280;46042;49.444;6.862;2023-11-21T01:05:02;97962.91;;;7.92;100.00
60170;BME280;46042;49.444;6.862;2023-11-21T01:07:30;97962.31;;;7.89;100.00
60170;BME280;46042;49.444;6.862;2023-11-21T01:09:56;97969.09;;;7.91;100.00
60170;BME280;46042;49.444;6.862;2023-11-21T01:12:23;97966.59;;;7.90;100.00
60170;BME280;46042;49.444;6.862;2023-11-21T01:14:52;97968.38;;;7.89;100.00
60170;BME280;46042;49.444;6.862;2023-11-21T01:17:19;97973.13;;;7.97;100.00
60170;BME280;46042;49.444;6.862;2023-11-21T01:19:46;97971.88;;;8.03;100.00
60170;BME280;46042;49.444;6.862;2023-11-21T01:22:13;97975.03;;;8.08;100.00
60170;BME280;46042;49.444;6.862;2023-11-21T01:24:39;97975.03;;;8.08;100.00
60170;BME280;46042;49.444;6.862;2023-11-21T01:27:06;97978.88;;;8.02;100.00
60170;BME280;46042;49.444;6.862;2023-11-21T01:29:33;97982.44;;;8.01;100.00
60170;BME280;46042;49.444;6.862;2023-11-21T01:32:02;97984.97;;;8.03;100.00
60170;BME280;46042;49.444;6.862;2023-11-21T01:34:29;97976.25;;;7.89;100.00
60170;BME280;46042;49.444;6.862;2023-11-21T01:36:57;97988.19;;;7.93;100.00
60170;BME280;46042;49.444;6.862;2023-11-21T01:39:25;97988.84;;;7.97;100.00
60170;BME280;46042;49.444;6.862;2023-11-21T01:41:52;97989.88;;;7.94;100.00
60170;BME280;46042;49.444;6.862;2023-11-21T01:44:19;97986.06;;;7.86;100.00
60170;BME280;46042;49.444;6.862;2023-11-21T01:46:46;97992.22;;;7.99;100.00
60170;BME280;46042;49.444;6.862;2023-11-21T01:49:14;97986.28;;;7.82;100.00
60170;BME280;46042;49.444;6.862;2023-11-21T01:51:43;97988.09;;;7.95;100.00
60170;BME280;46042;49.444;6.862;2023-11-21T01:54:10;97993.66;;;7.90;100.00
60170;BME280;46042;49.444;6.862;2023-11-21T01:56:47;97991.69;;;7.94;100.00
60170;BME280;46042;49.444;6.862;2023-11-21T01:59:18;97997.22;;;7.89;100.00
60170;BME280;46042;49.444;6.862;2023-11-21T02:01:46;97995.88;;;7.96;100.00
60170;BME280;46042;49.444;6.862;2023-11-21T02:04:13;97999.19;;;7.86;100.00
60170;BME280;46042;49.444;6.862;2023-11-21T02:06:40;98002.75;;;7.85;100.00
60170;BME280;46042;49.444;6.862;2023-11-21T02:09:07;97998.38;;;7.85;100.00
60170;BME280;46042;49.444;6.862;2023-11-21T02:11:35;97993.84;;;7.87;100.00
60170;BME280;46042;49.444;6.862;2023-11-21T02:14:02;97999.19;;;7.86;100.00
60170;BME280;46042;49.444;6.862;2023-11-21T02:16:28;97997.72;;;7.81;100.00
60170;BME280;46042;49.444;6.862;2023-11-21T02:18:58;98004.78;;;7.94;100.00
60170;BME280;46042;49.444;6.862;2023-11-21T02:21:25;97999.53;;;7.94;100.00
60170;BME280;46042;49.444;6.862;2023-11-21T02:23:52;97999.41;;;7.82;100.00
60170;BME280;46042;49.444;6.862;2023-11-21T02:26:19;98004.13;;;7.90;100.00
60170;BME280;46042;49.444;6.862;2023-11-21T02:28:46;98005.44;;;7.97;100.00
60170;BME280;46042;49.444;6.862;2023-11-21T02:31:14;98001.06;;;7.83;100.00
60170;BME280;46042;49.444;6.862;2023-11-21T02:33:41;98003.41;;;7.88;100.00
60170;BME280;46042;49.444;6.862;2023-11-21T02:36:08;98002.16;;;7.94;100.00
60170;BME280;46042;49.444;6.862;2023-11-21T02:38:35;98001.03;;;7.98;100.00
60170;BME280;46042;49.444;6.862;2023-11-21T02:41:01;98007.13;;;7.99;100.00
60170;BME280;46042;49.444;6.862;2023-11-21T02:43:28;98005.75;;;8.06;100.00
60170;BME280;46042;49.444;6.862;2023-11-21T02:45:54;98009.97;;;8.08;100.00
60170;BME280;46042;49.444;6.862;2023-11-21T02:48:21;98007.16;;;8.11;100.00
60170;BME280;46042;49.444;6.862;2023-11-21T02:50:50;98007.72;;;8.02;100.00
60170;BME280;46042;49.444;6.862;2023-11-21T02:53:17;98008.56;;;7.90;100.00
60170;BME280;46042;49.444;6.862;2023-11-21T02:55:43;98002.16;;;7.94;100.00
60170;BME280;46042;49.444;6.862;2023-11-21T02:58:10;98006.06;;;8.01;100.00
60170;BME280;46042;49.444;6.862;2023-11-21T03:00:37;98010.78;;;7.96;100.00
60170;BME280;46042;49.444;6.862;2023-11-21T03:03:03;98014.25;;;7.96;100.00
60170;BME280;46042;49.444;6.862;2023-11-21T03:05:30;98012.31;;;7.86;100.00
60170;BME280;46042;49.444;6.862;2023-11-21T03:07:57;98006.22;;;7.85;100.00
60170;BME280;46042;49.444;6.862;2023-11-21T03:10:24;98016.50;;;7.88;100.00
60170;BME280;46042;49.444;6.862;2023-11-21T03:12:50;98015.56;;;7.89;100.00
60170;BME280;46042;49.444;6.862;2023-11-21T03:15:17;98014.44;;;7.93;100.00
60170;BME280;46042;49.444;6.862;2023-11-21T03:17:44;98025.47;;;7.99;100.00
60170;BME280;46042;49.444;6.862;2023-11-21T03:20:11;98036.06;;;7.97;100.00
60170;BME280;46042;49.444;6.862;2023-11-21T03:22:38;98031.00;;;7.94;100.00
60170;BME280;46042;49.444;6.862;2023-11-21T03:25:06;98027.66;;;7.92;100.00
60170;BME280;46042;49.444;6.862;2023-11-21T03:27:33;98033.34;;;7.99;100.00
60170;BME280;46042;49.444;6.862;2023-11-21T03:29:59;98033.13;;;8.02;100.00
60170;BME280;46042;49.444;6.862;2023-11-21T03:32:26;98033.97;;;8.02;100.00
60170;BME280;46042;49.444;6.862;2023-11-21T03:34:57;98037.31;;;8.04;100.00
60170;BME280;46042;49.444;6.862;2023-11-21T03:37:25;98044.47;;;8.02;100.00
60170;BME280;46042;49.444;6.862;2023-11-21T03:39:55;98048.47;;;8.08;100.00
60170;BME280;46042;49.444;6.862;2023-11-21T03:42:23;98051.81;;;8.10;100.00
60170;BME280;46042;49.444;6.862;2023-11-21T03:44:53;98057.41;;;8.05;100.00
60170;BME280;46042;49.444;6.862;2023-11-21T03:47:20;98055.81;;;8.03;100.00
60170;BME280;46042;49.444;6.862;2023-11-21T03:49:47;98054.22;;;8.00;100.00
60170;BME280;46042;49.444;6.862;2023-11-21T03:52:13;98045.31;;;8.03;100.00
60170;BME280;46042;49.444;6.862;2023-11-21T03:54:40;98053.91;;;8.05;100.00
60170;BME280;46042;49.444;6.862;2023-11-21T03:57:07;98059.38;;;8.02;100.00
60170;BME280;46042;49.444;6.862;2023-11-21T03:59:34;98062.44;;;8.08;100.00
60170;BME280;46042;49.444;6.862;2023-11-21T04:02:00;98065.16;;;8.07;100.00
60170;BME280;46042;49.444;6.862;2023-11-21T04:04:27;98064.31;;;8.06;100.00
60170;BME280;46042;49.444;6.862;2023-11-21T04:06:54;98075.94;;;8.02;100.00
60170;BME280;46042;49.444;6.862;2023-11-21T04:09:20;98076.88;;;8.01;100.00
60170;BME280;46042;49.444;6.862;2023-11-21T04:11:52;98081.28;;;8.01;100.00
60170;BME280;46042;49.444;6.862;2023-11-21T04:14:19;98084.94;;;7.98;100.00
60170;BME280;46042;49.444;6.862;2023-11-21T04:16:46;98086.84;;;7.96;100.00
60170;BME280;46042;49.444;6.862;2023-11-21T04:19:12;98087.47;;;8.00;100.00
60170;BME280;46042;49.444;6.862;2023-11-21T04:21:42;98094.50;;;7.99;100.00
60170;BME280;46042;49.444;6.862;2023-11-21T04:24:09;98098.81;;;8.00;100.00
60170;BME280;46042;49.444;6.862;2023-11-21T04:26:36;98106.59;;;8.02;100.00
60170;BME280;46042;49.444;6.862;2023-11-21T04:29:03;98100.03;;;7.94;100.00
60170;BME280;46042;49.444;6.862;2023-11-21T04:31:32;98108.97;;;7.92;100.00
60170;BME280;46042;49.444;6.862;2023-11-21T04:33:59;98111.56;;;7.92;100.00
60170;BME280;46042;49.444;6.862;2023-11-21T04:36:26;98113.13;;;7.94;100.00
60170;BME280;46042;49.444;6.862;2023-11-21T04:38:53;98109.31;;;7.86;100.00
60170;BME280;46042;49.444;6.862;2023-11-21T04:41:19;98112.06;;;7.84;100.00
60170;BME280;46042;49.444;6.862;2023-11-21T04:43:46;98116.56;;;7.82;100.00
60170;BME280;46042;49.444;6.862;2023-11-21T04:46:13;98125.63;;;7.91;100.00
60170;BME280;46042;49.444;6.862;2023-11-21T04:48:40;98126.66;;;7.88;100.00
60170;BME280;46042;49.444;6.862;2023-11-21T04:51:06;98125.25;;;7.82;100.00
60170;BME280;46042;49.444;6.862;2023-11-21T04:53:33;98136.03;;;7.78;100.00
60170;BME280;46042;49.444;6.862;2023-11-21T04:56:01;98140.94;;;7.69;100.00
60170;BME280;46042;49.444;6.862;2023-11-21T04:58:28;98135.59;;;7.71;100.00
60170;BME280;46042;49.444;6.862;2023-11-21T05:00:55;98134.75;;;7.71;100.00
60170;BME280;46042;49.444;6.862;2023-11-21T05:03:21;98143.41;;;7.86;100.00
60170;BME280;46042;49.444;6.862;2023-11-21T05:05:50;98148.84;;;7.82;100.00
60170;BME280;46042;49.444;6.862;2023-11-21T05:08:17;98146.91;;;7.86;100.00
60170;BME280;46042;49.444;6.862;2023-11-21T05:10:44;98138.00;;;7.89;100.00
60170;BME280;46042;49.444;6.862;2023-11-21T05:13:10;98150.19;;;7.90;100.00
60170;BME280;46042;49.444;6.862;2023-11-21T05:15:37;98156.53;;;7.86;100.00
60170;BME280;46042;49.444;6.862;2023-11-21T05:18:05;98156.53;;;7.86;100.00
60170;BME280;46042;49.444;6.862;2023-11-21T05:20:33;98151.41;;;7.84;100.00
60170;BME280;46042;49.444;6.862;2023-11-21T05:22:59;98155.03;;;7.81;100.00
60170;BME280;46042;49.444;6.862;2023-11-21T05:25:26;98163.38;;;7.74;100.00
60170;BME280;46042;49.444;6.862;2023-11-21T05:27:53;98161.63;;;7.74;100.00
60170;BME280;46042;49.444;6.862;2023-11-21T05:30:21;98154.69;;;7.73;100.00
60170;BME280;46042;49.444;6.862;2023-11-21T05:32:48;98162.63;;;7.72;100.00
60170;BME280;46042;49.444;6.862;2023-11-21T05:35:16;98163.03;;;7.65;100.00
60170;BME280;46042;49.444;6.862;2023-11-21T05:37:47;98169.84;;;7.68;100.00
60170;BME280;46042;49.444;6.862;2023-11-21T05:40:14;98174.16;;;7.69;100.00
60170;BME280;46042;49.444;6.862;2023-11-21T05:42:41;98170.78;;;7.67;100.00
60170;BME280;46042;49.444;6.862;2023-11-21T05:45:09;98184.63;;;7.69;100.00
60170;BME280;46042;49.444;6.862;2023-11-21T05:47:45;98181.00;;;7.72;100.00
60170;BME280;46042;49.444;6.862;2023-11-21T05:50:15;98181.84;;;7.72;100.00
60170;BME280;46042;49.444;6.862;2023-11-21T05:52:44;98186.91;;;7.75;100.00
60170;BME280;46042;49.444;6.862;2023-11-21T05:55:11;98196.66;;;7.73;100.00
60170;BME280;46042;49.444;6.862;2023-11-21T05:57:39;98193.72;;;7.78;100.00
60170;BME280;46042;49.444;6.862;2023-11-21T06:00:11;98198.53;;;7.71;100.00
60170;BME280;46042;49.444;6.862;2023-11-21T06:02:39;98204.31;;;7.76;100.00
60170;BME280;46042;49.444;6.862;2023-11-21T06:05:07;98201.56;;;7.78;100.00
60170;BME280;46042;49.444;6.862;2023-11-21T06:07:34;98207.88;;;7.75;100.00
60170;BME280;46042;49.444;6.862;2023-11-21T06:10:05;98212.94;;;7.78;100.00
60170;BME280;46042;49.444;6.862;2023-11-21T06:12:35;98221.34;;;7.83;100.00
60170;BME280;46042;49.444;6.862;2023-11-21T06:15:04;98220.41;;;7.85;100.00
60170;BME280;46042;49.444;6.862;2023-11-21T06:17:36;98221.53;;;7.80;100.00
60170;BME280;46042;49.444;6.862;2023-11-21T06:20:04;98225.66;;;7.85;100.00
60170;BME280;46042;49.444;6.862;2023-11-21T06:22:40;98232.41;;;7.89;100.00
60170;BME280;46042;49.444;6.862;2023-11-21T06:25:07;98233.25;;;7.89;100.00
60170;BME280;46042;49.444;6.862;2023-11-21T06:27:38;98232.41;;;7.89;100.00
60170;BME280;46042;49.444;6.862;2023-11-21T06:30:06;98233.16;;;7.91;100.00
60170;BME280;46042;49.444;6.862;2023-11-21T06:32:33;98240.28;;;7.89;100.00
60170;BME280;46042;49.444;6.862;2023-11-21T06:34:59;98240.63;;;7.82;100.00
60170;BME280;46042;49.444;6.862;2023-11-21T06:37:27;98239.06;;;7.80;100.00
60170;BME280;46042;49.444;6.862;2023-11-21T06:39:55;98240.09;;;7.77;100.00
60170;BME280;46042;49.444;6.862;2023-11-21T06:42:23;98246.47;;;7.73;100.00
60170;BME280;46042;49.444;6.862;2023-11-21T06:44:50;98254.41;;;7.72;100.00
60170;BME280;46042;49.444;6.862;2023-11-21T06:47:20;98254.13;;;7.62;100.00
60170;BME280;46042;49.444;6.862;2023-11-21T06:49:47;98263.66;;;7.63;100.00
60170;BME280;46042;49.444;6.862;2023-11-21T06:52:17;98262.53;;;7.67;100.00
60170;BME280;46042;49.444;6.862;2023-11-21T06:54:45;98261.59;;;7.68;100.00
60170;BME280;46042;49.444;6.862;2023-11-21T06:57:11;98262.47;;;7.68;100.00
60170;BME280;46042;49.444;6.862;2023-11-21T06:59:38;98266.28;;;7.63;100.00
60170;BME280;46042;49.444;6.862;2023-11-21T07:02:06;98278.56;;;7.62;100.00
60170;BME280;46042;49.444;6.862;2023-11-21T07:04:36;98289.88;;;7.63;100.00
60170;BME280;46042;49.444;6.862;2023-11-21T07:07:04;98286.78;;;7.56;100.00
60170;BME280;46042;49.444;6.862;2023-11-21T07:09:31;98296.03;;;7.47;100.00
60170;BME280;46042;49.444;6.862;2023-11-21T07:11:57;98294.91;;;7.37;100.00
60170;BME280;46042;49.444;6.862;2023-11-21T07:14:24;98301.91;;;7.36;100.00
60170;BME280;46042;49.444;6.862;2023-11-21T07:16:50;98319.88;;;7.43;100.00
60170;BME280;46042;49.444;6.862;2023-11-21T07:19:19;98320.56;;;7.46;100.00
60170;BME280;46042;49.444;6.862;2023-11-21T07:21:48;98329.91;;;7.50;100.00
60170;BME280;46042;49.444;6.862;2023-11-21T07:24:18;98340.84;;;7.43;100.00
60170;BME280;46042;49.444;6.862;2023-11-21T07:26:44;98349.00;;;7.52;100.00
60170;BME280;46042;49.444;6.862;2023-11-21T07:29:11;98347.75;;;7.60;100.00
60170;BME280;46042;49.444;6.862;2023-11-21T07:31:38;98350.38;;;7.60;100.00
60170;BME280;46042;49.444;6.862;2023-11-21T07:34:05;98352.53;;;7.67;100.00
60170;BME280;46042;49.444;6.862;2023-11-21T07:36:32;98355.91;;;7.69;100.00
60170;BME280;46042;49.444;6.862;2023-11-21T07:38:59;98360.00;;;7.59;100.00
60170;BME280;46042;49.444;6.862;2023-11-21T07:41:25;98365.06;;;7.62;100.00
60170;BME280;46042;49.444;6.862;2023-11-21T07:43:57;98363.09;;;7.66;100.00
60170;BME280;46042;49.444;6.862;2023-11-21T07:46:26;98371.16;;;7.63;100.00
60170;BME280;46042;49.444;6.862;2023-11-21T07:48:54;98375.91;;;7.56;100.00
60170;BME280;46042;49.444;6.862;2023-11-21T07:51:21;98372.44;;;7.56;100.00
60170;BME280;46042;49.444;6.862;2023-11-21T07:53:48;98376.78;;;7.40;100.00
60170;BME280;46042;49.444;6.862;2023-11-21T07:56:16;98378.63;;;7.54;100.00
60170;BME280;46042;49.444;6.862;2023-11-21T07:58:43;98375.72;;;7.59;100.00
60170;BME280;46042;49.444;6.862;2023-11-21T08:01:09;98377.25;;;7.63;100.00
60170;BME280;46042;49.444;6.862;2023-11-21T08:03:36;98393.38;;;7.72;100.00
60170;BME280;46042;49.444;6.862;2023-11-21T08:06:03;98394.22;;;7.72;100.00
60170;BME280;46042;49.444;6.862;2023-11-21T08:08:33;98390.38;;;7.78;100.00
60170;BME280;46042;49.444;6.862;2023-11-21T08:10:59;98398.91;;;7.81;100.00
60170;BME280;46042;49.444;6.862;2023-11-21T08:13:29;98396.09;;;7.85;100.00
60170;BME280;46042;49.444;6.862;2023-11-21T08:15:58;98396.75;;;7.74;100.00
60170;BME280;46042;49.444;6.862;2023-11-21T08:18:29;98401.72;;;7.78;100.00
60170;BME280;46042;49.444;6.862;2023-11-21T08:20:56;98404.72;;;7.87;100.00
60170;BME280;46042;49.444;6.862;2023-11-21T08:23:23;98397.53;;;7.90;100.00
60170;BME280;46042;49.444;6.862;2023-11-21T08:25:53;98390.06;;;7.99;100.00
60170;BME280;46042;49.444;6.862;2023-11-21T08:28:21;98403.06;;;8.00;100.00
60170;BME280;46042;49.444;6.862;2023-11-21T08:30:52;98400.19;;;8.05;100.00
60170;BME280;46042;49.444;6.862;2023-11-21T08:33:21;98401.59;;;8.10;100.00
60170;BME280;46042;49.444;6.862;2023-11-21T08:35:48;98403.28;;;8.11;100.00
60170;BME280;46042;49.444;6.862;2023-11-21T08:38:15;98404.03;;;8.14;100.00
60170;BME280;46042;49.444;6.862;2023-11-21T08:40:41;98409.47;;;8.10;100.00
60170;BME280;46042;49.444;6.862;2023-11-21T08:43:08;98412.31;;;8.22;100.00
60170;BME280;46042;49.444;6.862;2023-11-21T08:45:35;98408.38;;;8.29;100.00
60170;BME280;46042;49.444;6.862;2023-11-21T08:48:02;98418.47;;;8.35;100.00
60170;BME280;46042;49.444;6.862;2023-11-21T08:50:29;98412.88;;;8.42;100.00
60170;BME280;46042;49.444;6.862;2023-11-21T08:52:56;98405.09;;;8.40;100.00
60170;BME280;46042;49.444;6.862;2023-11-21T08:55:22;98413.28;;;8.50;100.00
60170;BME280;46042;49.444;6.862;2023-11-21T08:57:49;98413.09;;;8.53;100.00
60170;BME280;46042;49.444;6.862;2023-11-21T09:00:17;98412.13;;;8.54;100.00
60170;BME280;46042;49.444;6.862;2023-11-21T09:02:45;98410.47;;;8.53;100.00
60170;BME280;46042;49.444;6.862;2023-11-21T09:05:13;98409.63;;;8.52;100.00
60170;BME280;46042;49.444;6.862;2023-11-21T09:07:41;98417.22;;;8.57;100.00
60170;BME280;46042;49.444;6.862;2023-11-21T09:10:09;98418.53;;;8.64;100.00
60170;BME280;46042;49.444;6.862;2023-11-21T09:12:36;98421.34;;;8.61;100.00
60170;BME280;46042;49.444;6.862;2023-11-21T09:15:05;98416.09;;;8.61;100.00
60170;BME280;46042;49.444;6.862;2023-11-21T09:17:33;98426.69;;;8.60;100.00
60170;BME280;46042;49.444;6.862;2023-11-21T09:20:02;98432.50;;;8.65;100.00
60170;BME280;46042;49.444;6.862;2023-11-21T09:22:32;98430.34;;;8.57;100.00
60170;BME280;46042;49.444;6.862;2023-11-21T09:24:59;98429.69;;;8.53;100.00
60170;BME280;46042;49.444;6.862;2023-11-21T09:27:25;98428.66;;;8.56;100.00
60170;BME280;46042;49.444;6.862;2023-11-21T09:29:52;98431.38;;;8.54;100.00
60170;BME280;46042;49.444;6.862;2023-11-21T09:32:20;98440.84;;;8.57;100.00
60170;BME280;46042;49.444;6.862;2023-11-21T09:34:51;98441.22;;;8.80;100.00
60170;BME280;46042;49.444;6.862;2023-11-21T09:37:18;98446.81;;;8.88;100.00
60170;BME280;46042;49.444;6.862;2023-11-21T09:39:45;98460.34;;;8.82;100.00
60170;BME280;46042;49.444;6.862;2023-11-21T09:42:23;98460.72;;;8.90;100.00
60170;BME280;46042;49.444;6.862;2023-11-21T09:45:00;98468.16;;;8.84;100.00
60170;BME280;46042;49.444;6.862;2023-11-21T09:47:32;98471.88;;;8.79;100.00
60170;BME280;46042;49.444;6.862;2023-11-21T09:50:01;98470.78;;;8.84;100.00
60170;BME280;46042;49.444;6.862;2023-11-21T09:52:28;98469.25;;;8.94;100.00
60170;BME280;46042;49.444;6.862;2023-11-21T09:54:55;98466.16;;;9.02;100.00
60170;BME280;46042;49.444;6.862;2023-11-21T09:57:25;98467.53;;;9.07;100.00
60170;BME280;46042;49.444;6.862;2023-11-21T09:59:53;98478.91;;;9.08;100.00
60170;BME280;46042;49.444;6.862;2023-11-21T10:02:27;98481.91;;;9.02;100.00
60170;BME280;46042;49.444;6.862;2023-11-21T10:04:59;98489.13;;;9.13;100.00
60170;BME280;46042;49.444;6.862;2023-11-21T10:07:28;98485.66;;;9.12;100.00
60170;BME280;46042;49.444;6.862;2023-11-21T10:10:00;98497.66;;;9.31;100.00
60170;BME280;46042;49.444;6.862;2023-11-21T10:12:28;98498.19;;;9.36;100.00
60170;BME280;46042;49.444;6.862;2023-11-21T10:14:58;98489.16;;;9.40;100.00
60170;BME280;46042;49.444;6.862;2023-11-21T10:17:28;98494.00;;;9.33;100.00
60170;BME280;46042;49.444;6.862;2023-11-21T10:20:04;98504.09;;;9.39;100.00
60170;BME280;46042;49.444;6.862;2023-11-21T10:22:40;98502.47;;;9.51;100.00
60170;BME280;46042;49.444;6.862;2023-11-21T10:25:10;98505.59;;;9.44;100.00
60170;BME280;46042;49.444;6.862;2023-11-21T10:27:37;98512.66;;;9.71;100.00
60170;BME280;46042;49.444;6.862;2023-11-21T10:30:08;98507.25;;;9.87;100.00
60170;BME280;46042;49.444;6.862;2023-11-21T10:32:39;98512.41;;;9.88;100.00
60170;BME280;46042;49.444;6.862;2023-11-21T10:35:08;98512.66;;;9.98;100.00
60170;BME280;46042;49.444;6.862;2023-11-21T10:37:42;98508.06;;;10.15;100.00
60170;BME280;46042;49.444;6.862;2023-11-21T10:40:12;98507.00;;;10.17;100.00
60170;BME280;46042;49.444;6.862;2023-11-21T10:42:41;98507.13;;;10.16;100.00
60170;BME280;46042;49.444;6.862;2023-11-21T10:45:08;98507.78;;;10.32;100.00
60170;BME280;46042;49.444;6.862;2023-11-21T10:47:39;98498.75;;;10.49;100.00
60170;BME280;46042;49.444;6.862;2023-11-21T10:50:07;98497.00;;;10.50;100.00
60170;BME280;46042;49.444;6.862;2023-11-21T10:52:39;98497.84;;;10.63;100.00
60170;BME280;46042;49.444;6.862;2023-11-21T10:55:19;98496.47;;;10.58;100.00
60170;BME280;46042;49.444;6.862;2023-11-21T10:57:53;98510.88;;;10.52;100.00
60170;BME280;46042;49.444;6.862;2023-11-21T11:00:20;98498.75;;;10.49;100.00
60170;BME280;46042;49.444;6.862;2023-11-21T11:02:50;98511.19;;;10.47;100.00
60170;BME280;46042;49.444;6.862;2023-11-21T11:05:19;98505.19;;;10.45;100.00
60170;BME280;46042;49.444;6.862;2023-11-21T11:07:48;98503.41;;;10.46;100.00
60170;BME280;46042;49.444;6.862;2023-11-21T11:10:15;98507.34;;;10.38;100.00
60170;BME280;46042;49.444;6.862;2023-11-21T11:12:42;98506.22;;;10.43;100.00
60170;BME280;46042;49.444;6.862;2023-11-21T11:15:11;98506.56;;;10.51;100.00
60170;BME280;46042;49.444;6.862;2023-11-21T11:17:38;98506.66;;;10.49;100.00
60170;BME280;46042;49.444;6.862;2023-11-21T11:20:06;98505.28;;;10.44;100.00
60170;BME280;46042;49.444;6.862;2023-11-21T11:28:29;98510.69;;;10.55;100.00
60170;BME280;46042;49.444;6.862;2023-11-21T11:31:21;98509.41;;;10.48;100.00
60170;BME280;46042;49.444;6.862;2023-11-21T11:34:17;98506.94;;;10.32;100.00
60170;BME280;46042;49.444;6.862;2023-11-21T11:36:58;98503.34;;;10.33;100.00
60170;BME280;46042;49.444;6.862;2023-11-21T11:39:38;98505.28;;;10.44;100.00
60170;BME280;46042;49.444;6.862;2023-11-21T11:42:08;98503.53;;;10.70;100.00
60170;BME280;46042;49.444;6.862;2023-11-21T11:47:29;98493.72;;;10.85;100.00
60170;BME280;46042;49.444;6.862;2023-11-21T11:50:11;98491.28;;;10.95;100.00
60170;BME280;46042;49.444;6.862;2023-11-21T11:52:52;98494.44;;;11.00;100.00
60170;BME280;46042;49.444;6.862;2023-11-21T11:55:23;98507.81;;;11.23;100.00
60170;BME280;46042;49.444;6.862;2023-11-21T11:57:52;98510.03;;;11.53;100.00
60170;BME280;46042;49.444;6.862;2023-11-21T12:02:59;98520.41;;;11.44;100.00
60170;BME280;46042;49.444;6.862;2023-11-21T12:05:30;98521.81;;;11.23;100.00
60170;BME280;46042;49.444;6.862;2023-11-21T12:08:03;98519.41;;;11.07;100.00
60170;BME280;46042;49.444;6.862;2023-11-21T12:10:32;98520.06;;;10.85;100.00
60170;BME280;46042;49.444;6.862;2023-11-21T12:13:08;98526.19;;;10.60;100.00
60170;BME280;46042;49.444;6.862;2023-11-21T12:15:36;98517.53;;;10.45;100.00
60170;BME280;46042;49.444;6.862;2023-11-21T12:18:04;98522.59;;;10.48;100.00
60170;BME280;46042;49.444;6.862;2023-11-21T12:20:32;98527.13;;;10.46;100.00
60170;BME280;46042;49.444;6.862;2023-11-21T12:22:59;98526.78;;;10.50;100.00
60170;BME280;46042;49.444;6.862;2023-11-21T12:25:28;98533.34;;;10.58;100.00
60170;BME280;46042;49.444;6.862;2023-11-21T12:27:59;98536.94;;;10.57;100.00
60170;BME280;46042;49.444;6.862;2023-11-21T12:30:28;98531.81;;;10.41;100.00
60170;BME280;46042;49.444;6.862;2023-11-21T12:32:58;98530.84;;;10.29;100.00
60170;BME280;46042;49.444;6.862;2023-11-21T12:35:27;98534.75;;;10.36;100.00
60170;BME280;46042;49.444;6.862;2023-11-21T12:37:57;98541.03;;;10.20;100.00
60170;BME280;46042;49.444;6.862;2023-11-21T12:40:24;98539.88;;;10.12;100.00
60170;BME280;46042;49.444;6.862;2023-11-21T12:42:53;98546.56;;;10.03;100.00
60170;BME280;46042;49.444;6.862;2023-11-21T12:45:22;98541.31;;;10.03;100.00
60170;BME280;46042;49.444;6.862;2023-11-21T12:48:04;98545.03;;;9.86;100.00
60170;BME280;46042;49.444;6.862;2023-11-21T12:50:35;98553.31;;;9.79;100.00
60170;BME280;46042;49.444;6.862;2023-11-21T12:53:05;98555.63;;;9.84;100.00
60170;BME280;46042;49.444;6.862;2023-11-21T12:55:33;98552.91;;;9.86;100.00
60170;BME280;46042;49.444;6.862;2023-11-21T12:58:03;98560.59;;;9.89;100.00
60170;BME280;46042;49.444;6.862;2023-11-21T13:00:47;98568.25;;;9.79;100.00
60170;BME280;46042;49.444;6.862;2023-11-21T13:03:17;98563.69;;;9.68;100.00
60170;BME280;46042;49.444;6.862;2023-11-21T13:05:47;98569.03;;;9.66;100.00
60170;BME280;46042;49.444;6.862;2023-11-21T13:08:22;98573.06;;;9.58;100.00
60170;BME280;46042;49.444;6.862;2023-11-21T13:10:55;98573.94;;;9.44;100.00
60170;BME280;46042;49.444;6.862;2023-11-21T13:13:24;98573.69;;;9.19;100.00
60170;BME280;46042;49.444;6.862;2023-11-21T13:16:02;98587.22;;;9.13;100.00